Time;durP1;ratioP1;P1;durP2;ratioP2;P2;SDS_P1;SDS_P2;PMS_P1;PMS_P2;Temp;Humidity;BMP_temperature;BMP_pressure;BME280_temperature;BME280_humidity;BME280_pressure;Samples;Min_cycle;Max_cycle;Signal;HPM_P1;HPM_P2
2022/03/06 00:01:04;;;;;;;19.27;14.53;;;;;;;;;;5032458;28;20862;-79
2022/03/06 00:03:31;;;;;;;19.80;14.20;;;;;;;;;;5032544;28;20480;-77
2022/03/06 00:05:58;;;;;;;20.47;14.83;;;;;;;;;;5033421;28;20484;-81
2022/03/06 00:08:25;;;;;;;18.00;13.90;;;;;;;;;;5033106;28;20782;-78
2022/03/06 00:10:52;;;;;;;17.53;13.30;;;;;;;;;;5032064;28;20450;-79
2022/03/06 00:13:19;;;;;;;18.43;14.50;;;;;;;;;;5032434;28;20445;-79
2022/03/06 00:15:48;;;;;;;17.33;13.57;;;;;;;;;;5032308;28;20851;-79
2022/03/06 00:18:15;;;;;;;19.10;13.73;;;;;;;;;;5053241;28;20467;-77
2022/03/06 00:20:42;;;;;;;19.63;13.97;;;;;;;;;;5069292;28;20980;-78
2022/03/06 00:23:09;;;;;;;16.90;12.63;;;;;;;;;;5041258;28;20508;-77
2022/03/06 00:25:37;;;;;;;18.97;13.23;;;;;;;;;;5029485;28;20452;-78
2022/03/06 00:28:04;;;;;;;15.57;12.17;;;;;;;;;;5030072;28;20439;-77
2022/03/06 00:30:31;;;;;;;18.63;13.20;;;;;;;;;;5045622;28;20451;-77
2022/03/06 00:32:59;;;;;;;17.27;13.07;;;;;;;;;;5057318;28;20529;-77
2022/03/06 00:35:28;;;;;;;18.47;13.13;;;;;;;;;;5068381;28;20449;-78
2022/03/06 00:37:55;;;;;;;17.93;13.43;;;;;;;;;;5067317;28;20500;-76
2022/03/06 00:40:22;;;;;;;17.90;12.53;;;;;;;;;;5068451;28;20470;-76
2022/03/06 00:42:49;;;;;;;22.03;15.00;;;;;;;;;;5067801;28;20983;-76
2022/03/06 00:45:16;;;;;;;16.67;12.60;;;;;;;;;;5068398;28;20448;-77
2022/03/06 00:47:43;;;;;;;16.70;13.67;;;;;;;;;;5068799;28;20441;-77
2022/03/06 00:50:12;;;;;;;18.70;12.60;;;;;;;;;;5055336;28;20454;-78
2022/03/06 00:52:40;;;;;;;17.67;12.43;;;;;;;;;;5068359;28;20806;-77
2022/03/06 00:55:07;;;;;;;19.07;13.87;;;;;;;;;;5055751;28;20451;-76
2022/03/06 00:57:34;;;;;;;16.23;13.00;;;;;;;;;;5039039;28;20452;-79
2022/03/06 01:00:01;;;;;;;16.60;11.47;;;;;;;;;;5070270;28;20452;-77
2022/03/06 01:02:28;;;;;;;17.83;12.80;;;;;;;;;;5060502;28;20654;-80
2022/03/06 01:04:55;;;;;;;16.10;12.17;;;;;;;;;;5058798;28;20436;-77
2022/03/06 01:07:24;;;;;;;16.63;13.40;;;;;;;;;;5070145;28;20452;-77
2022/03/06 01:09:51;;;;;;;16.53;12.00;;;;;;;;;;5072530;28;20451;-79
2022/03/06 01:12:18;;;;;;;20.67;14.07;;;;;;;;;;5072225;28;20471;-77
2022/03/06 01:14:45;;;;;;;17.63;14.30;;;;;;;;;;5063298;28;20459;-77
2022/03/06 01:17:12;;;;;;;16.70;13.17;;;;;;;;;;5066738;28;20463;-77
2022/03/06 01:19:39;;;;;;;18.07;13.50;;;;;;;;;;5054424;28;20573;-78
2022/03/06 01:22:06;;;;;;;20.20;13.13;;;;;;;;;;5065617;28;20465;-77
2022/03/06 01:24:35;;;;;;;18.90;12.97;;;;;;;;;;5064241;28;20476;-77
2022/03/06 01:27:02;;;;;;;16.10;13.10;;;;;;;;;;5058775;28;20480;-76
2022/03/06 01:29:29;;;;;;;17.67;12.90;;;;;;;;;;5058979;28;20446;-78
2022/03/06 01:31:56;;;;;;;18.80;13.67;;;;;;;;;;5060076;28;20464;-76
2022/03/06 01:34:23;;;;;;;18.37;13.60;;;;;;;;;;5071815;28;20440;-77
2022/03/06 01:36:50;;;;;;;16.43;14.50;;;;;;;;;;5071442;28;20456;-77
2022/03/06 01:39:17;;;;;;;18.20;13.83;;;;;;;;;;5071342;28;20488;-77
2022/03/06 01:41:46;;;;;;;22.97;13.60;;;;;;;;;;5071423;28;20477;-75
2022/03/06 01:44:14;;;;;;;17.93;13.20;;;;;;;;;;5070881;28;20436;-77
2022/03/06 01:46:41;;;;;;;20.13;13.77;;;;;;;;;;5070860;28;20570;-78
2022/03/06 01:49:09;;;;;;;17.13;12.53;;;;;;;;;;5071721;28;20426;-76
2022/03/06 01:51:36;;;;;;;16.83;12.07;;;;;;;;;;5071464;28;20472;-76
2022/03/06 01:54:03;;;;;;;17.47;12.70;;;;;;;;;;5062047;28;20472;-77
2022/03/06 01:56:30;;;;;;;17.20;14.13;;;;;;;;;;5051926;28;20602;-77
2022/03/06 01:58:59;;;;;;;17.70;13.07;;;;;;;;;;5051231;28;20994;-76
2022/03/06 02:01:26;;;;;;;19.30;13.63;;;;;;;;;;5051280;28;20465;-78
2022/03/06 02:03:53;;;;;;;18.87;13.70;;;;;;;;;;5052007;28;20438;-77
2022/03/06 02:06:20;;;;;;;18.60;12.60;;;;;;;;;;5062228;28;20547;-77
2022/03/06 02:08:48;;;;;;;18.03;13.70;;;;;;;;;;5071297;28;20795;-76
2022/03/06 02:11:16;;;;;;;19.53;13.93;;;;;;;;;;5071303;28;20988;-77
2022/03/06 02:13:43;;;;;;;18.00;13.63;;;;;;;;;;5071358;28;20964;-76
2022/03/06 02:16:12;;;;;;;19.10;13.97;;;;;;;;;;5071837;28;20479;-76
2022/03/06 02:18:40;;;;;;;19.83;13.37;;;;;;;;;;5070467;28;20977;-77
2022/03/06 02:21:09;;;;;;;16.33;12.97;;;;;;;;;;5072146;28;20465;-76
2022/03/06 02:23:37;;;;;;;18.80;13.83;;;;;;;;;;5072757;28;20452;-76
2022/03/06 02:26:04;;;;;;;18.23;13.03;;;;;;;;;;5073828;28;20442;-76
2022/03/06 02:28:31;;;;;;;16.57;12.40;;;;;;;;;;5076300;28;20439;-77
2022/03/06 02:30:58;;;;;;;19.00;13.50;;;;;;;;;;5051749;28;20450;-76
2022/03/06 02:33:25;;;;;;;19.33;14.50;;;;;;;;;;5045697;28;21018;-76
2022/03/06 02:35:52;;;;;;;18.40;14.00;;;;;;;;;;5052789;28;20447;-78
2022/03/06 02:38:21;;;;;;;20.17;13.83;;;;;;;;;;5060264;28;20483;-76
2022/03/06 02:40:49;;;;;;;18.07;13.30;;;;;;;;;;5051603;28;20807;-76
2022/03/06 02:43:16;;;;;;;17.57;12.67;;;;;;;;;;5051510;28;20907;-77
2022/03/06 02:45:44;;;;;;;18.13;13.60;;;;;;;;;;5052292;28;20439;-77
2022/03/06 02:48:11;;;;;;;15.87;12.70;;;;;;;;;;5052933;28;20451;-76
2022/03/06 02:50:39;;;;;;;18.43;13.37;;;;;;;;;;5052843;28;20825;-77
2022/03/06 02:53:07;;;;;;;17.23;12.30;;;;;;;;;;5052668;28;20461;-76
2022/03/06 02:55:35;;;;;;;19.57;13.70;;;;;;;;;;5052946;28;20453;-76
2022/03/06 02:58:02;;;;;;;16.97;12.43;;;;;;;;;;5052904;28;20449;-78
2022/03/06 03:00:29;;;;;;;17.37;12.97;;;;;;;;;;5053076;28;20450;-77
2022/03/06 03:02:56;;;;;;;16.70;12.30;;;;;;;;;;5052337;28;20470;-78
2022/03/06 03:05:25;;;;;;;15.43;12.67;;;;;;;;;;5052787;28;20446;-78
2022/03/06 03:07:52;;;;;;;21.00;14.30;;;;;;;;;;5052402;28;20937;-75
2022/03/06 03:10:22;;;;;;;18.43;12.97;;;;;;;;;;5053078;28;20447;-76
2022/03/06 03:12:50;;;;;;;21.67;15.07;;;;;;;;;;5052711;28;20455;-77
2022/03/06 03:15:17;;;;;;;18.50;14.37;;;;;;;;;;5052612;28;20995;-78
2022/03/06 03:17:45;;;;;;;19.80;13.17;;;;;;;;;;5042260;28;20451;-77
2022/03/06 03:20:12;;;;;;;20.60;14.20;;;;;;;;;;5047690;28;20478;-77
2022/03/06 03:22:39;;;;;;;17.30;12.90;;;;;;;;;;5052632;28;20468;-77
2022/03/06 03:25:07;;;;;;;20.00;14.40;;;;;;;;;;5052600;28;20450;-77
2022/03/06 03:27:34;;;;;;;19.20;14.47;;;;;;;;;;5052183;28;20438;-78
2022/03/06 03:30:03;;;;;;;16.70;13.00;;;;;;;;;;5051996;28;20449;-76
2022/03/06 03:32:30;;;;;;;15.93;12.80;;;;;;;;;;5051048;28;20460;-77
2022/03/06 03:34:57;;;;;;;17.37;13.77;;;;;;;;;;5051816;28;20430;-77
2022/03/06 03:37:24;;;;;;;16.63;12.90;;;;;;;;;;5052143;28;20458;-76
2022/03/06 03:39:51;;;;;;;17.27;13.27;;;;;;;;;;5051899;28;20539;-75
2022/03/06 03:42:18;;;;;;;17.60;13.60;;;;;;;;;;5051810;28;20470;-76
2022/03/06 03:44:45;;;;;;;21.33;13.37;;;;;;;;;;5051636;28;20934;-77
2022/03/06 03:47:13;;;;;;;18.23;13.33;;;;;;;;;;5051889;28;20865;-77
2022/03/06 03:49:40;;;;;;;21.73;15.57;;;;;;;;;;5051585;28;20503;-77
2022/03/06 03:52:08;;;;;;;19.67;12.70;;;;;;;;;;5051963;28;20474;-76
2022/03/06 03:54:35;;;;;;;17.40;12.47;;;;;;;;;;5051760;28;20450;-78
2022/03/06 03:57:02;;;;;;;17.93;12.40;;;;;;;;;;5052102;28;20544;-78
2022/03/06 03:59:29;;;;;;;16.73;13.60;;;;;;;;;;5051453;28;21001;-77
2022/03/06 04:01:57;;;;;;;19.60;13.40;;;;;;;;;;5051857;28;20466;-76
2022/03/06 04:04:26;;;;;;;17.67;13.10;;;;;;;;;;5051365;28;20910;-77
2022/03/06 04:06:53;;;;;;;19.60;14.07;;;;;;;;;;5052051;28;20447;-78
2022/03/06 04:09:20;;;;;;;20.30;13.97;;;;;;;;;;5052751;28;20492;-77
2022/03/06 04:11:47;;;;;;;17.00;12.80;;;;;;;;;;5052025;28;20476;-76
2022/03/06 04:14:14;;;;;;;17.50;13.27;;;;;;;;;;5051628;28;20496;-76
2022/03/06 04:16:41;;;;;;;19.83;12.93;;;;;;;;;;5051479;28;20449;-75
2022/03/06 04:19:09;;;;;;;22.73;14.40;;;;;;;;;;5050720;28;20876;-76
2022/03/06 04:21:37;;;;;;;19.93;13.63;;;;;;;;;;5050037;28;20501;-78
2022/03/06 04:24:04;;;;;;;23.80;14.53;;;;;;;;;;5051779;28;20462;-77
2022/03/06 04:26:31;;;;;;;17.07;13.07;;;;;;;;;;5051806;28;20446;-77
2022/03/06 04:28:58;;;;;;;17.07;13.30;;;;;;;;;;5050966;28;20464;-76
2022/03/06 04:31:25;;;;;;;21.17;13.90;;;;;;;;;;5053258;28;20462;-76
2022/03/06 04:33:52;;;;;;;20.93;13.80;;;;;;;;;;5050390;28;20445;-77
2022/03/06 04:36:19;;;;;;;21.70;15.27;;;;;;;;;;5049757;28;20499;-78
2022/03/06 04:38:48;;;;;;;18.63;13.70;;;;;;;;;;5049262;28;20864;-78
2022/03/06 04:41:16;;;;;;;21.43;14.70;;;;;;;;;;5049369;28;20479;-76
2022/03/06 04:43:43;;;;;;;19.50;13.20;;;;;;;;;;5048977;28;20449;-77
2022/03/06 04:46:10;;;;;;;18.50;13.10;;;;;;;;;;5049365;28;20584;-77
2022/03/06 04:48:37;;;;;;;18.60;14.03;;;;;;;;;;5049230;28;20442;-78
2022/03/06 04:51:04;;;;;;;19.40;14.77;;;;;;;;;;5049309;28;20453;-76
2022/03/06 04:53:31;;;;;;;16.87;12.20;;;;;;;;;;5049210;28;20443;-78
2022/03/06 04:55:59;;;;;;;15.07;13.00;;;;;;;;;;5049461;28;20446;-77
2022/03/06 04:58:26;;;;;;;19.30;13.47;;;;;;;;;;5049239;28;20794;-76
2022/03/06 05:00:53;;;;;;;18.23;13.43;;;;;;;;;;5049255;28;20493;-76
2022/03/06 05:03:20;;;;;;;17.07;12.97;;;;;;;;;;5049290;28;20449;-77
2022/03/06 05:05:47;;;;;;;19.50;14.33;;;;;;;;;;5049437;28;21011;-77
2022/03/06 05:08:14;;;;;;;19.70;14.33;;;;;;;;;;5049288;28;20449;-77
2022/03/06 05:10:41;;;;;;;19.40;13.10;;;;;;;;;;5049406;28;20438;-77
2022/03/06 05:13:10;;;;;;;18.17;12.93;;;;;;;;;;5049162;28;20464;-77
2022/03/06 05:15:37;;;;;;;17.00;13.00;;;;;;;;;;5049186;28;20449;-77
2022/03/06 05:18:04;;;;;;;17.70;12.73;;;;;;;;;;5049074;28;20452;-78
2022/03/06 05:20:32;;;;;;;17.17;12.57;;;;;;;;;;5049181;28;20991;-77
2022/03/06 05:22:59;;;;;;;21.70;14.57;;;;;;;;;;5048899;28;20480;-75
2022/03/06 05:25:27;;;;;;;17.63;13.83;;;;;;;;;;5048798;28;20449;-77
2022/03/06 05:27:54;;;;;;;18.83;13.13;;;;;;;;;;5049309;28;20456;-76
2022/03/06 05:30:23;;;;;;;16.53;13.30;;;;;;;;;;5048953;28;20449;-76
2022/03/06 05:32:50;;;;;;;19.57;12.80;;;;;;;;;;5048566;28;20511;-76
2022/03/06 05:35:17;;;;;;;17.60;12.93;;;;;;;;;;5043314;28;20513;-75
2022/03/06 05:37:44;;;;;;;23.73;13.43;;;;;;;;;;5033845;28;20442;-77
2022/03/06 05:40:11;;;;;;;18.60;14.07;;;;;;;;;;5030738;28;20513;-76
2022/03/06 05:42:38;;;;;;;18.47;13.60;;;;;;;;;;5028377;28;20469;-76
2022/03/06 05:45:06;;;;;;;17.60;13.10;;;;;;;;;;5029027;28;20461;-76
2022/03/06 05:47:34;;;;;;;19.17;13.90;;;;;;;;;;5038208;28;20440;-79
2022/03/06 05:50:02;;;;;;;17.73;14.00;;;;;;;;;;5060322;28;20940;-76
2022/03/06 05:52:29;;;;;;;18.80;14.07;;;;;;;;;;5068609;28;20625;-79
2022/03/06 05:54:56;;;;;;;19.83;14.70;;;;;;;;;;5070389;28;20500;-76
2022/03/06 05:57:24;;;;;;;20.30;14.10;;;;;;;;;;5072327;28;20448;-76
2022/03/06 05:59:51;;;;;;;19.10;13.83;;;;;;;;;;5071675;28;21076;-76
2022/03/06 06:02:19;;;;;;;17.97;13.83;;;;;;;;;;5072073;28;21055;-77
2022/03/06 06:04:47;;;;;;;18.27;12.83;;;;;;;;;;5071895;28;20445;-77
2022/03/06 06:07:14;;;;;;;21.70;14.90;;;;;;;;;;5072068;28;20506;-77
2022/03/06 06:09:42;;;;;;;24.60;14.40;;;;;;;;;;5071873;28;20438;-78
2022/03/06 06:12:10;;;;;;;17.70;13.80;;;;;;;;;;5076116;28;20469;-76
2022/03/06 06:14:37;;;;;;;20.80;14.00;;;;;;;;;;5077111;28;21019;-78
2022/03/06 06:17:04;;;;;;;19.40;13.90;;;;;;;;;;5075546;28;20444;-79
2022/03/06 06:19:31;;;;;;;22.33;16.20;;;;;;;;;;5074111;28;20572;-77
2022/03/06 06:21:59;;;;;;;18.07;14.10;;;;;;;;;;5074766;28;21007;-76
2022/03/06 06:24:26;;;;;;;17.43;13.87;;;;;;;;;;5074145;28;20448;-76
2022/03/06 06:26:55;;;;;;;17.97;13.10;;;;;;;;;;5075189;28;20456;-77
2022/03/06 06:29:22;;;;;;;18.40;13.50;;;;;;;;;;5074314;28;20502;-76
2022/03/06 06:31:49;;;;;;;19.40;14.07;;;;;;;;;;5071798;28;20968;-77
2022/03/06 06:34:16;;;;;;;19.27;14.20;;;;;;;;;;5071776;28;20502;-76
2022/03/06 06:36:43;;;;;;;18.80;13.27;;;;;;;;;;5071826;28;20432;-77
2022/03/06 06:39:12;;;;;;;18.73;14.10;;;;;;;;;;5071891;28;20460;-77
2022/03/06 06:41:39;;;;;;;19.97;14.67;;;;;;;;;;5071716;28;20471;-79
2022/03/06 06:44:06;;;;;;;21.40;14.17;;;;;;;;;;5071566;28;20452;-76
2022/03/06 06:46:33;;;;;;;18.23;14.20;;;;;;;;;;5073201;28;20465;-77
2022/03/06 06:49:00;;;;;;;23.60;15.77;;;;;;;;;;5073138;28;20453;-77
2022/03/06 06:51:28;;;;;;;17.30;14.33;;;;;;;;;;5071220;28;20465;-79
2022/03/06 06:53:55;;;;;;;19.17;14.30;;;;;;;;;;5071313;28;21183;-77
2022/03/06 06:56:23;;;;;;;19.13;13.90;;;;;;;;;;5071356;28;21056;-77
2022/03/06 06:58:50;;;;;;;19.33;13.30;;;;;;;;;;5071456;28;20449;-76
2022/03/06 07:01:18;;;;;;;19.23;13.20;;;;;;;;;;5071255;28;20550;-78
2022/03/06 07:03:45;;;;;;;19.50;14.00;;;;;;;;;;5071638;28;20534;-76
2022/03/06 07:06:12;;;;;;;20.40;14.70;;;;;;;;;;5070852;28;20448;-76
2022/03/06 07:08:39;;;;;;;22.20;15.73;;;;;;;;;;5070847;28;20887;-77
2022/03/06 07:11:06;;;;;;;18.30;13.27;;;;;;;;;;5070712;28;20444;-77
2022/03/06 07:13:34;;;;;;;19.57;14.60;;;;;;;;;;5071470;28;20445;-78
2022/03/06 07:16:02;;;;;;;19.13;14.73;;;;;;;;;;5072036;28;20440;-78
2022/03/06 07:18:29;;;;;;;20.40;14.00;;;;;;;;;;5071738;28;20437;-77
2022/03/06 07:20:56;;;;;;;24.23;16.83;;;;;;;;;;5070680;28;20489;-79
2022/03/06 07:23:23;;;;;;;30.87;22.20;;;;;;;;;;5070260;28;20445;-77
2022/03/06 07:25:50;;;;;;;23.07;16.23;;;;;;;;;;5070420;28;20433;-77
2022/03/06 07:28:17;;;;;;;39.97;25.20;;;;;;;;;;5058174;28;20455;-78
2022/03/06 07:30:47;;;;;;;23.10;16.73;;;;;;;;;;5031586;28;20452;-77
2022/03/06 07:33:15;;;;;;;19.57;14.80;;;;;;;;;;5031713;28;20461;-78
2022/03/06 07:35:42;;;;;;;22.53;15.83;;;;;;;;;;5031507;28;20447;-77
2022/03/06 07:38:09;;;;;;;21.90;16.53;;;;;;;;;;5031789;28;20456;-77
2022/03/06 07:40:36;;;;;;;22.73;15.70;;;;;;;;;;5031431;28;20460;-77
2022/03/06 07:43:03;;;;;;;20.20;15.47;;;;;;;;;;5030332;28;20466;-77
2022/03/06 07:45:31;;;;;;;22.90;16.40;;;;;;;;;;5030692;28;20446;-78
2022/03/06 07:47:59;;;;;;;19.57;15.20;;;;;;;;;;5030719;28;20458;-78
2022/03/06 07:50:26;;;;;;;18.07;14.63;;;;;;;;;;5030314;28;20825;-77
2022/03/06 07:52:56;;;;;;;28.93;19.77;;;;;;;;;;5030336;28;20555;-78
2022/03/06 07:55:23;;;;;;;21.70;16.70;;;;;;;;;;5030366;28;20464;-79
2022/03/06 07:57:50;;;;;;;16.97;15.00;;;;;;;;;;5030914;28;20445;-77
2022/03/06 08:00:17;;;;;;;16.83;14.43;;;;;;;;;;5030351;28;20800;-77
2022/03/06 08:02:44;;;;;;;19.20;14.67;;;;;;;;;;5030007;28;20485;-77
2022/03/06 08:05:13;;;;;;;22.17;15.70;;;;;;;;;;5030569;28;20449;-76
2022/03/06 08:07:40;;;;;;;19.87;15.03;;;;;;;;;;5029931;28;20448;-77
2022/03/06 08:10:08;;;;;;;20.40;15.37;;;;;;;;;;5030003;28;20486;-76
2022/03/06 08:12:35;;;;;;;19.13;14.63;;;;;;;;;;5029871;28;20472;-77
2022/03/06 08:15:03;;;;;;;21.13;15.43;;;;;;;;;;5029862;28;20445;-78
2022/03/06 08:17:30;;;;;;;20.90;15.20;;;;;;;;;;5029540;28;20818;-78
2022/03/06 08:19:57;;;;;;;20.17;15.37;;;;;;;;;;5030169;28;20519;-77
2022/03/06 08:22:25;;;;;;;18.97;16.00;;;;;;;;;;5030346;28;20470;-78
2022/03/06 08:24:53;;;;;;;24.87;15.77;;;;;;;;;;5030100;28;20442;-78
2022/03/06 08:27:21;;;;;;;17.97;13.67;;;;;;;;;;5029759;28;20545;-79
2022/03/06 08:29:48;;;;;;;17.60;14.50;;;;;;;;;;5029592;28;20997;-79
2022/03/06 08:32:15;;;;;;;16.83;14.20;;;;;;;;;;5029785;28;20565;-77
2022/03/06 08:34:42;;;;;;;21.80;14.80;;;;;;;;;;5029543;28;20453;-77
2022/03/06 08:37:09;;;;;;;19.43;15.40;;;;;;;;;;5029723;28;20453;-78
2022/03/06 08:39:37;;;;;;;18.93;15.67;;;;;;;;;;5029856;28;20929;-77
2022/03/06 08:42:05;;;;;;;20.37;14.63;;;;;;;;;;5029789;28;20493;-76
2022/03/06 08:44:32;;;;;;;17.50;15.60;;;;;;;;;;5029990;28;20473;-77
2022/03/06 08:46:59;;;;;;;19.63;14.80;;;;;;;;;;5030666;28;20434;-77
2022/03/06 08:49:26;;;;;;;19.50;14.87;;;;;;;;;;5034978;28;20458;-77
2022/03/06 08:51:53;;;;;;;18.63;15.70;;;;;;;;;;5037013;28;21008;-76
2022/03/06 08:54:21;;;;;;;19.33;15.50;;;;;;;;;;5056357;28;20434;-77
2022/03/06 08:56:49;;;;;;;19.03;14.50;;;;;;;;;;5047675;28;20960;-80
2022/03/06 08:59:16;;;;;;;18.00;15.63;;;;;;;;;;5048460;28;20446;-77
2022/03/06 09:01:43;;;;;;;19.97;14.50;;;;;;;;;;5047122;28;20486;-77
2022/03/06 09:04:10;;;;;;;21.40;15.30;;;;;;;;;;5047823;28;20450;-77
2022/03/06 09:06:38;;;;;;;17.43;15.47;;;;;;;;;;5049407;28;20446;-79
2022/03/06 09:09:05;;;;;;;17.90;15.90;;;;;;;;;;5049797;28;20473;-79
2022/03/06 09:11:32;;;;;;;17.00;14.70;;;;;;;;;;5038578;28;20458;-78
2022/03/06 09:14:00;;;;;;;18.30;15.20;;;;;;;;;;5032499;28;20808;-77
2022/03/06 09:16:27;;;;;;;18.20;15.20;;;;;;;;;;5032087;28;20943;-80
2022/03/06 09:18:54;;;;;;;17.03;14.50;;;;;;;;;;5032181;28;20508;-77
2022/03/06 09:21:21;;;;;;;19.30;15.77;;;;;;;;;;5031736;28;21076;-78
2022/03/06 09:23:48;;;;;;;18.10;15.53;;;;;;;;;;5031630;28;20599;-77
2022/03/06 09:26:15;;;;;;;19.53;15.07;;;;;;;;;;5033468;28;20443;-79
2022/03/06 09:28:42;;;;;;;16.23;13.73;;;;;;;;;;5032931;28;20458;-78
2022/03/06 09:31:11;;;;;;;16.63;14.53;;;;;;;;;;5036333;28;21033;-79
2022/03/06 09:33:38;;;;;;;17.57;14.97;;;;;;;;;;5035725;28;20442;-78
2022/03/06 09:36:05;;;;;;;20.80;16.60;;;;;;;;;;5036658;28;20454;-77
2022/03/06 09:38:32;;;;;;;16.47;14.00;;;;;;;;;;5035966;28;21069;-76
2022/03/06 09:41:01;;;;;;;15.60;13.53;;;;;;;;;;5036469;28;20478;-76
2022/03/06 09:43:29;;;;;;;19.73;14.60;;;;;;;;;;5034111;28;20453;-78
2022/03/06 09:46:00;;;;;;;17.00;14.30;;;;;;;;;;5033171;28;20453;-78
2022/03/06 09:48:29;;;;;;;17.67;14.00;;;;;;;;;;5033204;28;20806;-77
2022/03/06 09:50:57;;;;;;;16.70;14.07;;;;;;;;;;5034276;28;20847;-77
2022/03/06 09:53:24;;;;;;;17.90;13.50;;;;;;;;;;5033725;28;20536;-78
2022/03/06 09:55:51;;;;;;;17.23;13.30;;;;;;;;;;5034816;28;20964;-78
2022/03/06 09:58:18;;;;;;;16.10;14.00;;;;;;;;;;5035366;28;20461;-79
2022/03/06 10:00:45;;;;;;;18.47;13.57;;;;;;;;;;5033666;28;20481;-78
2022/03/06 10:03:17;;;;;;;16.57;13.67;;;;;;;;;;5033933;28;20524;-78
2022/03/06 10:05:46;;;;;;;18.00;14.50;;;;;;;;;;5034687;28;20489;-82
2022/03/06 10:08:17;;;;;;;16.10;12.47;;;;;;;;;;5034234;28;20520;-79
2022/03/06 10:10:44;;;;;;;17.77;14.40;;;;;;;;;;5033240;28;20449;-77
2022/03/06 10:13:18;;;;;;;17.50;14.00;;;;;;;;;;5033604;28;20497;-79
2022/03/06 10:16:01;;;;;;;15.83;13.47;;;;;;;;;;5033387;28;20430;-77
2022/03/06 10:18:30;;;;;;;18.07;13.77;;;;;;;;;;5033379;28;20501;-78
2022/03/06 10:21:03;;;;;;;17.43;14.30;;;;;;;;;;5040693;28;20546;-78
2022/03/06 10:23:30;;;;;;;15.87;13.33;;;;;;;;;;5043421;28;20454;-78
2022/03/06 10:26:00;;;;;;;16.37;13.40;;;;;;;;;;5033415;28;20515;-82
2022/03/06 10:28:27;;;;;;;16.80;12.53;;;;;;;;;;5033421;28;20482;-77
2022/03/06 10:30:54;;;;;;;15.80;12.70;;;;;;;;;;5032770;28;20469;-77
2022/03/06 10:33:23;;;;;;;15.73;13.87;;;;;;;;;;5032292;28;20438;-79
2022/03/06 10:35:52;;;;;;;14.83;13.23;;;;;;;;;;5038789;28;20443;-78
2022/03/06 10:38:23;;;;;;;15.50;13.43;;;;;;;;;;5042922;28;20860;-80
2022/03/06 10:40:50;;;;;;;16.17;13.37;;;;;;;;;;5034958;28;20470;-79
2022/03/06 10:43:18;;;;;;;16.67;13.60;;;;;;;;;;5040354;28;20442;-77
2022/03/06 10:45:45;;;;;;;18.13;14.03;;;;;;;;;;5041532;28;20505;-78
2022/03/06 10:48:12;;;;;;;16.63;14.70;;;;;;;;;;5036613;28;20438;-78
2022/03/06 10:50:39;;;;;;;13.57;12.03;;;;;;;;;;5035877;28;20446;-77
2022/03/06 10:53:18;;;;;;;14.13;12.60;;;;;;;;;;5036734;28;20477;-79
2022/03/06 10:55:46;;;;;;;19.93;17.30;;;;;;;;;;5035688;28;20473;-78
2022/03/06 10:58:13;;;;;;;16.03;13.93;;;;;;;;;;5034950;28;20443;-77
2022/03/06 11:00:41;;;;;;;13.97;11.73;;;;;;;;;;5035214;28;20447;-77
2022/03/06 11:03:10;;;;;;;13.33;11.97;;;;;;;;;;5034906;28;20478;-79
2022/03/06 11:05:38;;;;;;;13.63;11.90;;;;;;;;;;5032534;28;20532;-78
2022/03/06 11:08:08;;;;;;;14.43;12.20;;;;;;;;;;5031356;28;20972;-78
2022/03/06 11:10:35;;;;;;;13.43;11.90;;;;;;;;;;5031573;28;20457;-77
2022/03/06 11:13:04;;;;;;;15.30;11.50;;;;;;;;;;5031526;28;20596;-78
2022/03/06 11:15:31;;;;;;;13.30;11.87;;;;;;;;;;5031480;28;20450;-77
2022/03/06 11:18:01;;;;;;;15.73;13.17;;;;;;;;;;5031360;28;20454;-76
2022/03/06 11:20:29;;;;;;;14.90;12.50;;;;;;;;;;5031310;28;20577;-78
2022/03/06 11:23:00;;;;;;;13.47;12.13;;;;;;;;;;5030762;28;20573;-80
2022/03/06 11:25:28;;;;;;;14.10;12.07;;;;;;;;;;5031347;28;20431;-79
2022/03/06 11:28:00;;;;;;;13.93;12.00;;;;;;;;;;5031278;28;20455;-78
2022/03/06 11:30:28;;;;;;;14.13;12.63;;;;;;;;;;5034284;28;20988;-78
2022/03/06 11:33:04;;;;;;;13.23;11.83;;;;;;;;;;5032179;28;20466;-78
2022/03/06 11:35:32;;;;;;;20.33;18.17;;;;;;;;;;5038535;28;20453;-78
2022/03/06 11:38:00;;;;;;;21.20;18.60;;;;;;;;;;5050876;28;20449;-78
2022/03/06 11:40:54;;;;;;;17.77;15.90;;;;;;;;;;5051298;28;20456;-78
2022/03/06 11:43:38;;;;;;;14.40;12.90;;;;;;;;;;5050833;28;20504;-78
2022/03/06 11:46:12;;;;;;;24.20;21.40;;;;;;;;;;5031881;28;20423;-78
2022/03/06 11:49:12;;;;;;;28.63;25.70;;;;;;;;;;5070231;28;20445;-78
2022/03/06 11:51:44;;;;;;;14.60;13.03;;;;;;;;;;5069761;28;21051;-77
2022/03/06 11:54:14;;;;;;;12.03;10.83;;;;;;;;;;5058480;28;20449;-78
2022/03/06 11:56:42;;;;;;;13.20;11.90;;;;;;;;;;5050180;28;20978;-78
2022/03/06 11:59:10;;;;;;;12.63;11.33;;;;;;;;;;5050506;28;20866;-78
2022/03/06 12:01:40;;;;;;;14.00;12.40;;;;;;;;;;5049699;28;20539;-80
2022/03/06 12:04:09;;;;;;;13.43;12.03;;;;;;;;;;5049079;28;20555;-77
2022/03/06 12:06:39;;;;;;;13.37;12.03;;;;;;;;;;5064997;28;20432;-77
2022/03/06 12:09:11;;;;;;;13.30;11.70;;;;;;;;;;5071487;28;20956;-78
2022/03/06 12:11:39;;;;;;;12.83;11.50;;;;;;;;;;5071630;28;20494;-77
2022/03/06 12:14:15;;;;;;;13.30;11.90;;;;;;;;;;5071591;28;20456;-78
2022/03/06 12:16:57;;;;;;;12.20;11.00;;;;;;;;;;5072016;28;20432;-78
2022/03/06 12:19:25;;;;;;;12.30;11.00;;;;;;;;;;5071491;28;20498;-76
2022/03/06 12:21:53;;;;;;;12.63;11.43;;;;;;;;;;5071926;28;20564;-78
2022/03/06 12:24:29;;;;;;;12.00;10.80;;;;;;;;;;5071431;28;20490;-78
2022/03/06 12:26:56;;;;;;;13.30;11.90;;;;;;;;;;5071688;28;20432;-77
2022/03/06 12:29:44;;;;;;;13.43;11.70;;;;;;;;;;5071604;28;20453;-77
2022/03/06 12:32:32;;;;;;;12.63;11.23;;;;;;;;;;5071147;28;20812;-77
2022/03/06 12:35:01;;;;;;;12.80;11.50;;;;;;;;;;5071218;28;20975;-76
2022/03/06 12:37:29;;;;;;;13.57;12.07;;;;;;;;;;5071495;28;20447;-79
2022/03/06 12:39:56;;;;;;;13.83;12.33;;;;;;;;;;5071268;28;20511;-79
2022/03/06 12:42:24;;;;;;;12.60;11.30;;;;;;;;;;5041765;28;20472;-79
2022/03/06 12:44:54;;;;;;;14.77;12.27;;;;;;;;;;5066064;28;20465;-77
2022/03/06 12:47:21;;;;;;;15.73;11.83;;;;;;;;;;5052123;28;20444;-77
2022/03/06 12:49:49;;;;;;;13.10;11.50;;;;;;;;;;5057384;28;20444;-78
2022/03/06 12:52:18;;;;;;;13.17;11.70;;;;;;;;;;5071207;28;20463;-76
2022/03/06 12:54:46;;;;;;;12.70;11.40;;;;;;;;;;5069652;28;20539;-77
2022/03/06 12:57:13;;;;;;;12.33;11.13;;;;;;;;;;5033855;28;20953;-77
2022/03/06 12:59:41;;;;;;;11.77;10.57;;;;;;;;;;5058733;28;20432;-78
2022/03/06 13:02:08;;;;;;;12.73;11.33;;;;;;;;;;5071149;28;20472;-76
2022/03/06 13:04:35;;;;;;;11.10;10.00;;;;;;;;;;5067687;28;20535;-78
2022/03/06 13:07:03;;;;;;;12.87;11.50;;;;;;;;;;5055040;28;21310;-78
2022/03/06 13:09:34;;;;;;;11.53;10.30;;;;;;;;;;5035232;28;20454;-77
2022/03/06 13:12:02;;;;;;;13.03;11.40;;;;;;;;;;5035249;28;20641;-76
2022/03/06 13:14:31;;;;;;;12.60;11.17;;;;;;;;;;5035321;28;20987;-77
2022/03/06 13:16:59;;;;;;;12.80;11.50;;;;;;;;;;5035756;28;20580;-77
2022/03/06 13:19:26;;;;;;;12.40;11.10;;;;;;;;;;5035174;28;20438;-78
2022/03/06 13:21:53;;;;;;;11.90;10.70;;;;;;;;;;5034925;28;20482;-78
2022/03/06 13:24:20;;;;;;;13.20;11.90;;;;;;;;;;5034981;28;20454;-77
2022/03/06 13:26:49;;;;;;;12.70;11.43;;;;;;;;;;5036098;28;20453;-76
2022/03/06 13:29:17;;;;;;;10.70;9.70;;;;;;;;;;5038486;28;20438;-77
2022/03/06 13:31:45;;;;;;;13.03;11.73;;;;;;;;;;5040395;28;20454;-79
2022/03/06 13:34:13;;;;;;;11.83;10.43;;;;;;;;;;5036263;28;20449;-77
2022/03/06 13:36:41;;;;;;;11.50;10.30;;;;;;;;;;5036626;28;20902;-78
2022/03/06 13:39:11;;;;;;;12.67;11.37;;;;;;;;;;5035373;28;20461;-79
2022/03/06 13:41:38;;;;;;;12.60;11.30;;;;;;;;;;5035701;28;20458;-77
2022/03/06 13:44:07;;;;;;;12.40;11.03;;;;;;;;;;5035546;28;20449;-78
2022/03/06 13:46:41;;;;;;;12.07;10.87;;;;;;;;;;5037202;28;20472;-79
2022/03/06 13:49:08;;;;;;;11.17;10.07;;;;;;;;;;5036075;28;20766;-78
2022/03/06 13:51:35;;;;;;;11.93;10.70;;;;;;;;;;5036596;28;20513;-77
2022/03/06 13:54:03;;;;;;;12.47;11.27;;;;;;;;;;5037345;28;20450;-78
2022/03/06 13:56:31;;;;;;;13.23;11.83;;;;;;;;;;5036297;28;20450;-76
2022/03/06 13:58:58;;;;;;;12.70;10.53;;;;;;;;;;5034531;28;20900;-77
2022/03/06 14:01:27;;;;;;;12.10;10.63;;;;;;;;;;5034866;28;20524;-78
2022/03/06 14:04:01;;;;;;;14.50;13.10;;;;;;;;;;5034297;28;20539;-77
2022/03/06 14:06:35;;;;;;;12.33;11.10;;;;;;;;;;5034721;28;20499;-77
2022/03/06 14:09:02;;;;;;;12.33;10.40;;;;;;;;;;5034520;28;20462;-77
2022/03/06 14:11:29;;;;;;;14.53;11.07;;;;;;;;;;5034025;28;20474;-78
2022/03/06 14:13:57;;;;;;;12.07;10.70;;;;;;;;;;5034059;28;20496;-77
2022/03/06 14:16:26;;;;;;;12.80;11.40;;;;;;;;;;5032473;28;20451;-78
2022/03/06 14:18:56;;;;;;;12.37;11.17;;;;;;;;;;5034399;28;20508;-77
2022/03/06 14:21:25;;;;;;;12.17;10.87;;;;;;;;;;5072742;28;20467;-78